Boryslav — ENLB — position and weather

sailwx.info

Track history (hours):
 
Tides and Currents Weather Stations Pressure Air Temp Water Temp Dewpoint Dewpoint Depression Visibility Wind Speed Wind Dir Waves Ship Positions

Boryslav

Last reported at 2014-Nov-18 06:16 UTC. Time now 2014-Nov-24 01:18 UTC.
Position N 47°40' E 035°07'.

Length 86 m; draft 2.3 m.

Type: Ship (hazmat cat D). MMSI: 272088700.

Date/timePositionNaut miles runAvg speedWind from/ knotsBaromVisibWave heightAir tempDewpointWater temp
2014-Nov-18 06:16N 47°40' E 035°07'3 3.9
2014-Nov-18 05:29N 47°43' E 035°09'3 3.4
2014-Nov-18 04:33N 47°46' E 035°09'2 2.4
2014-Nov-18 03:33N 47°49' E 035°09'0 0.0
2014-Nov-18 02:33N 47°49' E 035°09'0 0.0
2014-Nov-18 01:33N 47°49' E 035°09'0 0.0
2014-Nov-18 00:33N 47°49' E 035°09'0 0.0
2014-Nov-17 23:33N 47°49' E 035°09'0 0.0
2014-Nov-17 22:33N 47°49' E 035°09'0 0.0
2014-Nov-17 21:33N 47°49' E 035°09'0 0.0
2014-Nov-17 20:33N 47°49' E 035°09'0 0.0
2014-Nov-17 19:33N 47°49' E 035°09'0 0.0
2014-Nov-17 18:33N 47°49' E 035°09'0 0.0
2014-Nov-17 17:33N 47°49' E 035°09'0 0.0
2014-Nov-17 16:33N 47°49' E 035°09'1 1.4
2014-Nov-17 15:33N 47°50' E 035°07'3 2.6
2014-Nov-17 14:33N 47°52' E 035°06'0 0.4
2014-Nov-17 13:33N 47°52' E 035°06'0 0.1
2014-Nov-17 12:33N 47°52' E 035°06'0 0.0
2014-Nov-17 11:33N 47°52' E 035°06'0 0.0
2014-Nov-17 10:33N 47°52' E 035°06'0 0.0
2014-Nov-17 09:33N 47°52' E 035°06'  
2014-Nov-14 08:33N 47°52' E 035°06'1 0.5
2014-Nov-14 07:30N 47°52' E 035°05'2 2.3
2014-Nov-14 06:33N 47°50' E 035°07'2 2.2
2014-Nov-14 05:33N 47°48' E 035°09'0 0.0
2014-Nov-14 04:33N 47°48' E 035°09'0 0.0
2014-Nov-14 03:33N 47°48' E 035°09'0 0.0
2014-Nov-14 02:33N 47°48' E 035°09'0 0.0
2014-Nov-14 01:33N 47°48' E 035°09'0 0.0
2014-Nov-14 00:33N 47°48' E 035°09'0 0.0
2014-Nov-13 23:33N 47°48' E 035°09'0 0.0
2014-Nov-13 22:33N 47°48' E 035°09'3 2.7
2014-Nov-13 21:33N 47°46' E 035°10'4 3.7
2014-Nov-13 20:30N 47°42' E 035°08'94 3.1
2014-Nov-12 14:30N 46°45' E 033°17'10 3.3
2014-Nov-12 11:20N 46°44' E 033°02'  
2014-Nov-08 11:03N 47°40' E 035°07'2 3.6
2014-Nov-08 10:30N 47°42' E 035°08'3 3.4
2014-Nov-08 09:33N 47°45' E 035°10'3 3.4
2014-Nov-08 08:33N 47°48' E 035°09'1 0.9
2014-Nov-08 07:33N 47°49' E 035°08'3 3.4
2014-Nov-08 06:33N 47°52' E 035°05'  
Track history (hours):
 
Tides and Currents Weather Stations Pressure Air Temp Water Temp Dewpoint Dewpoint Depression Visibility Wind Speed Wind Dir Waves Ship Positions

Boryslav

Last reported at 2014-Nov-18 06:16 UTC. Time now 2014-Nov-24 01:18 UTC.
Position N 47°40' E 035°07'.

Length 86 m; draft 2.3 m.

Type: Ship (hazmat cat D). MMSI: 272088700.

Date/timePositionNaut miles runAvg speedWind from/ knotsBaromVisibWave heightAir tempDewpointWater temp
2014-Nov-18 06:16N 47°40' E 035°07'3 3.9
2014-Nov-18 05:29N 47°43' E 035°09'3 3.4
2014-Nov-18 04:33N 47°46' E 035°09'2 2.4
2014-Nov-18 03:33N 47°49' E 035°09'0 0.0
2014-Nov-18 02:33N 47°49' E 035°09'0 0.0
2014-Nov-18 01:33N 47°49' E 035°09'0 0.0
2014-Nov-18 00:33N 47°49' E 035°09'0 0.0
2014-Nov-17 23:33N 47°49' E 035°09'0 0.0
2014-Nov-17 22:33N 47°49' E 035°09'0 0.0
2014-Nov-17 21:33N 47°49' E 035°09'0 0.0
2014-Nov-17 20:33N 47°49' E 035°09'0 0.0
2014-Nov-17 19:33N 47°49' E 035°09'0 0.0
2014-Nov-17 18:33N 47°49' E 035°09'0 0.0
2014-Nov-17 17:33N 47°49' E 035°09'0 0.0
2014-Nov-17 16:33N 47°49' E 035°09'1 1.4
2014-Nov-17 15:33N 47°50' E 035°07'3 2.6
2014-Nov-17 14:33N 47°52' E 035°06'0 0.4
2014-Nov-17 13:33N 47°52' E 035°06'0 0.1
2014-Nov-17 12:33N 47°52' E 035°06'0 0.0
2014-Nov-17 11:33N 47°52' E 035°06'0 0.0
2014-Nov-17 10:33N 47°52' E 035°06'0 0.0
2014-Nov-17 09:33N 47°52' E 035°06'  
2014-Nov-14 08:33N 47°52' E 035°06'1 0.5
2014-Nov-14 07:30N 47°52' E 035°05'2 2.3
2014-Nov-14 06:33N 47°50' E 035°07'2 2.2
2014-Nov-14 05:33N 47°48' E 035°09'0 0.0
2014-Nov-14 04:33N 47°48' E 035°09'0 0.0
2014-Nov-14 03:33N 47°48' E 035°09'0 0.0
2014-Nov-14 02:33N 47°48' E 035°09'0 0.0
2014-Nov-14 01:33N 47°48' E 035°09'0 0.0
2014-Nov-14 00:33N 47°48' E 035°09'0 0.0
2014-Nov-13 23:33N 47°48' E 035°09'0 0.0
2014-Nov-13 22:33N 47°48' E 035°09'3 2.7
2014-Nov-13 21:33N 47°46' E 035°10'4 3.7
2014-Nov-13 20:30N 47°42' E 035°08'94 3.1
2014-Nov-12 14:30N 46°45' E 033°17'10 3.3
2014-Nov-12 11:20N 46°44' E 033°02'  
2014-Nov-08 11:03N 47°40' E 035°07'2 3.6
2014-Nov-08 10:30N 47°42' E 035°08'3 3.4
2014-Nov-08 09:33N 47°45' E 035°10'3 3.4
2014-Nov-08 08:33N 47°48' E 035°09'1 0.9
2014-Nov-08 07:33N 47°49' E 035°08'3 3.4
2014-Nov-08 06:33N 47°52' E 035°05'  

Dump ship's entire track history